createdAt,value
2023-05-21T00:00:02.039Z,19.98
2023-05-21T00:02:30.215Z,20.17
2023-05-21T00:05:05.058Z,19.27
2023-05-21T00:07:38.941Z,22.48
2023-05-21T00:10:18.822Z,24.13
2023-05-21T00:12:52.851Z,20.83
2023-05-21T00:15:26.795Z,27.58
2023-05-21T00:17:54.031Z,23.65
2023-05-21T00:20:28.899Z,22.17
2023-05-21T00:23:03.857Z,21.90
2023-05-21T00:25:37.930Z,23.42
2023-05-21T00:28:05.548Z,21.38
2023-05-21T00:30:38.825Z,20.67
2023-05-21T00:33:06.002Z,22.25
2023-05-21T00:35:39.793Z,22.92
2023-05-21T00:38:07.611Z,21.52
2023-05-21T00:40:47.850Z,20.35
2023-05-21T00:43:21.771Z,21.13
2023-05-21T00:45:48.854Z,22.55
2023-05-21T00:48:22.803Z,22.52
2023-05-21T00:50:50.595Z,24.40
2023-05-21T00:53:25.834Z,25.08
2023-05-21T00:55:53.367Z,23.13
2023-05-21T00:58:26.858Z,22.73
2023-05-21T01:00:57.049Z,22.70
2023-05-21T01:03:24.442Z,24.05
2023-05-21T01:05:59.861Z,22.48
2023-05-21T01:08:41.836Z,21.55
2023-05-21T01:11:17.998Z,21.05
2023-05-21T01:13:53.856Z,27.38
2023-05-21T01:16:27.892Z,22.08
2023-05-21T01:19:01.891Z,26.40
2023-05-21T01:21:37.981Z,24.92
2023-05-21T01:24:08.544Z,23.50
2023-05-21T01:26:45.863Z,24.27
2023-05-21T01:29:14.741Z,25.95
2023-05-21T01:32:30.015Z,26.23
2023-05-21T01:35:21.773Z,24.25
2023-05-21T01:38:04.851Z,23.85
2023-05-21T01:41:10.848Z,22.65
2023-05-21T01:43:48.849Z,26.98
2023-05-21T01:46:28.916Z,26.33
2023-05-21T01:49:03.794Z,24.63
2023-05-21T01:51:31.311Z,24.90
2023-05-21T01:53:58.655Z,25.50
2023-05-21T01:56:32.822Z,24.25
2023-05-21T01:59:06.838Z,27.75
2023-05-21T02:01:34.464Z,27.90
2023-05-21T02:04:08.950Z,22.83
2023-05-21T02:06:43.808Z,24.13
2023-05-21T02:09:23.890Z,23.33
2023-05-21T02:11:57.846Z,25.13
2023-05-21T02:14:31.841Z,23.35
2023-05-21T02:16:59.661Z,29.52
2023-05-21T02:19:33.987Z,26.80
2023-05-21T02:22:07.833Z,28.85
2023-05-21T02:24:42.062Z,28.77
2023-05-21T02:27:10.771Z,21.73
2023-05-21T02:29:44.856Z,26.88
2023-05-21T02:32:18.844Z,29.17
2023-05-21T02:34:47.482Z,27.60
2023-05-21T02:37:20.856Z,25.05
2023-05-21T02:39:47.921Z,25.45
2023-05-21T02:42:21.902Z,26.95
2023-05-21T02:44:49.798Z,25.60
2023-05-21T02:47:23.915Z,26.13
2023-05-21T02:49:53.131Z,26.55
2023-05-21T02:52:30.908Z,25.33
2023-05-21T02:54:58.026Z,26.98
2023-05-21T02:57:31.825Z,28.52
2023-05-21T02:59:58.959Z,24.90
2023-05-21T03:02:32.950Z,25.33
2023-05-21T03:05:00.886Z,29.23
2023-05-21T03:07:41.813Z,25.50
2023-05-21T03:10:09.425Z,26.48
2023-05-21T03:12:42.878Z,28.98
2023-05-21T03:15:17.845Z,28.05
2023-05-21T03:17:52.023Z,31.27
2023-05-21T03:20:25.816Z,28.13
2023-05-21T03:22:53.070Z,29.02
2023-05-21T03:25:26.877Z,28.58
2023-05-21T03:28:00.957Z,30.30
2023-05-21T03:30:28.270Z,28.30
2023-05-21T03:32:56.553Z,30.48
2023-05-21T03:35:29.912Z,25.77
2023-05-21T03:37:57.017Z,30.58
2023-05-21T03:40:30.862Z,29.92
2023-05-21T03:42:57.975Z,29.20
2023-05-21T03:45:25.048Z,27.00
2023-05-21T03:47:58.939Z,24.90
2023-05-21T03:50:32.852Z,28.83
2023-05-21T03:53:06.839Z,31.30
2023-05-21T03:55:40.848Z,25.42
2023-05-21T03:58:20.864Z,28.48
2023-05-21T04:00:48.479Z,27.02
2023-05-21T04:03:16.236Z,29.10
2023-05-21T04:05:49.879Z,23.73
2023-05-21T04:08:23.570Z,29.67
2023-05-21T04:10:56.915Z,25.55
2023-05-21T04:13:24.013Z,28.85
2023-05-21T04:15:57.860Z,30.27
2023-05-21T04:18:26.164Z,25.77
2023-05-21T04:21:01.134Z,23.60
2023-05-21T04:23:34.860Z,25.17
2023-05-21T04:26:08.907Z,24.92
2023-05-21T04:28:43.838Z,25.50
2023-05-21T04:31:13.901Z,24.55
2023-05-21T04:33:49.148Z,25.10
2023-05-21T04:36:17.493Z,21.38
2023-05-21T04:38:51.849Z,22.65
2023-05-21T04:41:19.197Z,22.08
2023-05-21T04:43:52.917Z,23.70
2023-05-21T04:46:27.000Z,25.80
2023-05-21T04:49:04.949Z,22.33
2023-05-21T04:51:38.909Z,23.55
2023-05-21T04:54:06.511Z,21.15
2023-05-21T04:56:39.882Z,22.60
2023-05-21T04:59:07.160Z,19.10
2023-05-21T05:01:41.882Z,24.00
2023-05-21T05:04:09.767Z,22.25
2023-05-21T05:06:43.873Z,20.20
2023-05-21T05:09:24.926Z,21.65
2023-05-21T05:11:52.256Z,18.73
2023-05-21T05:14:25.877Z,22.08
2023-05-21T05:16:54.630Z,22.38
2023-05-21T05:19:29.068Z,22.77
2023-05-21T05:22:02.939Z,22.70
2023-05-21T05:24:36.903Z,20.45
2023-05-21T05:27:10.892Z,17.67
2023-05-21T05:29:44.853Z,19.05
2023-05-21T05:32:19.016Z,17.05
2023-05-21T05:34:47.129Z,18.65
2023-05-21T05:37:14.528Z,17.85
2023-05-21T05:39:48.972Z,18.58
2023-05-21T05:42:16.225Z,18.83
2023-05-21T05:44:49.921Z,19.67
2023-05-21T05:47:17.601Z,17.10
2023-05-21T05:49:52.147Z,21.17
2023-05-21T05:52:19.363Z,20.92
2023-05-21T05:54:53.899Z,18.10
2023-05-21T05:57:28.042Z,15.18
2023-05-21T06:00:02.057Z,15.75
2023-05-21T06:02:29.286Z,15.23
2023-05-21T06:05:02.929Z,15.10
2023-05-21T06:07:37.893Z,16.98
2023-05-21T06:10:15.935Z,16.73
2023-05-21T06:12:49.885Z,18.35
2023-05-21T06:15:23.890Z,14.93
2023-05-21T06:17:51.057Z,15.20
2023-05-21T06:20:24.876Z,16.35
2023-05-21T06:22:52.003Z,15.52
2023-05-21T06:25:25.967Z,14.05
2023-05-21T06:27:53.184Z,15.73
2023-05-21T06:30:26.924Z,13.05
2023-05-21T06:32:54.099Z,12.68
2023-05-21T06:35:28.994Z,16.45
2023-05-21T06:37:57.465Z,14.05
2023-05-21T06:40:30.899Z,12.55
2023-05-21T06:43:00.024Z,13.07
2023-05-21T06:45:33.974Z,14.60
2023-05-21T06:48:07.995Z,12.15
2023-05-21T06:50:41.970Z,12.77
2023-05-21T06:53:15.885Z,11.80
2023-05-21T06:55:52.929Z,12.25
2023-05-21T06:58:20.038Z,11.85
2023-05-21T07:00:53.973Z,13.82
2023-05-21T07:03:21.202Z,13.50
2023-05-21T07:05:54.938Z,13.00
2023-05-21T07:08:28.590Z,12.82
2023-05-21T07:11:02.926Z,11.27
2023-05-21T07:13:30.935Z,11.75
2023-05-21T07:15:58.016Z,11.35
2023-05-21T07:18:32.139Z,11.45
2023-05-21T07:21:06.867Z,13.05
2023-05-21T07:23:40.900Z,11.00
2023-05-21T07:26:10.768Z,11.95
2023-05-21T07:28:45.978Z,11.15
2023-05-21T07:31:13.262Z,11.50
2023-05-21T07:33:40.397Z,10.57
2023-05-21T07:36:13.954Z,10.70
2023-05-21T07:38:47.889Z,11.80
2023-05-21T07:41:23.208Z,13.50
2023-05-21T07:43:57.901Z,12.48
2023-05-21T07:46:31.994Z,11.40
2023-05-21T07:49:07.159Z,11.30
2023-05-21T07:51:41.000Z,10.48
2023-05-21T07:54:20.986Z,11.88
2023-05-21T07:56:57.113Z,16.23
2023-05-21T07:59:33.037Z,12.85
2023-05-21T08:02:01.031Z,12.50
2023-05-21T08:04:37.006Z,11.00
2023-05-21T08:07:13.065Z,11.40
2023-05-21T08:09:56.997Z,13.23
2023-05-21T08:12:24.469Z,12.07
2023-05-21T08:14:57.976Z,12.65
2023-05-21T08:17:26.995Z,13.93
2023-05-21T08:20:01.013Z,12.48
2023-05-21T08:22:35.941Z,11.55
2023-05-21T08:25:10.963Z,12.55
2023-05-21T08:27:44.988Z,11.93
2023-05-21T08:30:19.017Z,12.40
2023-05-21T08:32:55.461Z,12.98
2023-05-21T08:35:22.690Z,12.18
2023-05-21T08:37:57.089Z,12.90
2023-05-21T08:40:24.412Z,13.90
2023-05-21T08:42:58.936Z,10.48
2023-05-21T08:45:27.728Z,11.02
2023-05-21T08:48:04.031Z,11.43
2023-05-21T08:50:32.801Z,12.73
2023-05-21T08:53:15.997Z,12.30
2023-05-21T08:56:04.966Z,12.02
2023-05-21T08:58:39.956Z,12.00
2023-05-21T09:01:15.024Z,13.05
2023-05-21T09:03:49.959Z,14.50
2023-05-21T09:06:23.974Z,14.68
2023-05-21T09:09:15.927Z,14.25
2023-05-21T09:11:50.004Z,11.75
2023-05-21T09:14:18.801Z,12.45
2023-05-21T09:16:55.032Z,15.20
2023-05-21T09:19:22.647Z,12.18
2023-05-21T09:21:59.067Z,12.55
2023-05-21T09:24:35.853Z,14.07
2023-05-21T09:27:14.025Z,12.48
2023-05-21T09:29:42.686Z,12.95
2023-05-21T09:32:16.952Z,12.77
2023-05-21T09:34:45.049Z,11.90
2023-05-21T09:37:27.011Z,12.40
2023-05-21T09:39:54.862Z,13.15
2023-05-21T09:42:30.057Z,12.07
2023-05-21T09:44:58.047Z,12.40
2023-05-21T09:47:32.051Z,12.05
2023-05-21T09:50:06.013Z,11.13
2023-05-21T09:52:43.022Z,12.35
2023-05-21T09:55:15.040Z,11.45
2023-05-21T09:57:56.991Z,12.02
2023-05-21T10:00:35.142Z,11.43
2023-05-21T10:03:20.386Z,11.25
2023-05-21T10:05:47.585Z,11.85
2023-05-21T10:08:33.980Z,13.15
2023-05-21T10:11:16.990Z,12.82
2023-05-21T10:14:01.004Z,10.82
2023-05-21T10:16:37.132Z,10.65
2023-05-21T10:19:06.104Z,12.63
2023-05-21T10:21:33.742Z,11.05
2023-05-21T10:24:10.966Z,13.25
2023-05-21T10:26:41.470Z,12.40
2023-05-21T10:29:19.346Z,11.98
2023-05-21T10:31:50.033Z,12.63
2023-05-21T10:34:23.997Z,10.43
2023-05-21T10:36:59.999Z,10.68
2023-05-21T10:39:34.040Z,9.50
2023-05-21T10:42:12.697Z,11.25
2023-05-21T10:45:11.063Z,11.35
2023-05-21T10:48:15.084Z,12.65
2023-05-21T10:51:21.002Z,13.18
2023-05-21T10:54:55.353Z,10.65
2023-05-21T10:57:58.241Z,10.07
2023-05-21T11:00:27.604Z,12.13
2023-05-21T11:02:55.116Z,14.35
2023-05-21T11:05:58.025Z,11.80
2023-05-21T11:08:40.967Z,12.85
2023-05-21T11:11:53.471Z,13.45
2023-05-21T11:14:43.091Z,10.57
2023-05-21T11:17:23.039Z,11.52
2023-05-21T11:19:59.024Z,11.80
2023-05-21T11:22:27.773Z,11.82
2023-05-21T11:25:08.992Z,10.20
2023-05-21T11:27:42.932Z,11.75
2023-05-21T11:30:25.201Z,12.20
2023-05-21T11:33:15.815Z,10.65
2023-05-21T11:35:52.019Z,10.18
2023-05-21T11:38:27.041Z,10.63
2023-05-21T11:40:55.660Z,10.45
2023-05-21T11:43:30.172Z,11.05
2023-05-21T11:45:58.206Z,11.23
2023-05-21T11:48:34.011Z,11.35
2023-05-21T11:51:02.323Z,10.75
2023-05-21T11:53:37.065Z,11.65
2023-05-21T11:56:09.923Z,11.15
2023-05-21T11:58:43.011Z,11.10
2023-05-21T12:01:31.048Z,13.82
2023-05-21T12:03:58.220Z,10.32
2023-05-21T12:06:28.538Z,12.23
2023-05-21T12:09:06.059Z,12.32
2023-05-21T12:11:33.292Z,10.32
2023-05-21T12:14:07.020Z,11.50
2023-05-21T12:16:34.539Z,10.40
2023-05-21T12:19:10.052Z,10.18
2023-05-21T12:21:44.036Z,10.40
2023-05-21T12:24:19.222Z,9.25
2023-05-21T12:26:53.024Z,9.07
2023-05-21T12:29:28.045Z,9.50
2023-05-21T12:31:59.770Z,10.48
2023-05-21T12:34:58.176Z,10.85
2023-05-21T12:37:35.482Z,10.15
2023-05-21T12:40:18.080Z,9.65
2023-05-21T12:42:52.103Z,9.63
2023-05-21T12:45:28.017Z,10.95
2023-05-21T12:48:03.142Z,9.75
2023-05-21T12:50:33.223Z,11.13
2023-05-21T12:53:07.022Z,9.30
2023-05-21T12:55:42.056Z,9.38
2023-05-21T12:58:20.010Z,9.68
2023-05-21T13:00:54.265Z,8.88
2023-05-21T13:03:24.195Z,9.40
2023-05-21T13:06:09.086Z,9.57
2023-05-21T13:08:43.152Z,9.35
2023-05-21T13:11:23.318Z,9.30
2023-05-21T13:13:50.447Z,9.05
2023-05-21T13:16:24.153Z,9.23
2023-05-21T13:18:51.255Z,9.02
2023-05-21T13:21:25.047Z,9.02
2023-05-21T13:23:56.699Z,12.30
2023-05-21T13:26:23.791Z,12.35
2023-05-21T13:28:58.071Z,8.38
2023-05-21T13:31:26.118Z,10.07
2023-05-21T13:34:02.028Z,12.25
2023-05-21T13:36:29.167Z,7.97
2023-05-21T13:39:04.050Z,8.10
2023-05-21T13:41:38.054Z,8.50
2023-05-21T13:44:05.523Z,8.48
2023-05-21T13:46:39.153Z,7.90
2023-05-21T13:49:06.663Z,8.48
2023-05-21T13:51:40.040Z,8.20
2023-05-21T13:54:07.107Z,8.98
2023-05-21T13:56:41.065Z,7.57
2023-05-21T13:59:08.222Z,7.35
2023-05-21T14:01:42.058Z,7.90
2023-05-21T14:04:09.224Z,9.07
2023-05-21T14:06:36.587Z,10.65
2023-05-21T14:09:11.063Z,8.00
2023-05-21T14:11:38.573Z,7.65
2023-05-21T14:14:13.188Z,7.88
2023-05-21T14:16:40.326Z,10.00
2023-05-21T14:19:14.130Z,9.27
2023-05-21T14:21:41.750Z,7.90
2023-05-21T14:24:17.089Z,8.48
2023-05-21T14:26:44.142Z,8.20
2023-05-21T14:29:25.060Z,6.78
2023-05-21T14:32:15.168Z,6.75
2023-05-21T14:34:56.066Z,7.20
2023-05-21T14:37:23.371Z,6.80
2023-05-21T14:39:57.151Z,7.78
2023-05-21T14:42:24.303Z,10.90
2023-05-21T14:44:58.952Z,7.72
2023-05-21T14:47:33.077Z,5.60
2023-05-21T14:50:07.128Z,7.97
2023-05-21T14:52:35.412Z,6.00
2023-05-21T14:55:09.136Z,6.50
2023-05-21T14:57:36.366Z,7.22
2023-05-21T15:00:12.084Z,6.60
2023-05-21T15:02:39.716Z,6.32
2023-05-21T15:05:14.284Z,6.70
2023-05-21T15:07:41.335Z,7.13
2023-05-21T15:10:21.126Z,6.78
2023-05-21T15:12:48.321Z,6.70
2023-05-21T15:15:24.114Z,6.20
2023-05-21T15:17:51.351Z,6.68
2023-05-21T15:20:26.131Z,7.20
2023-05-21T15:23:08.502Z,12.00
2023-05-21T15:25:46.176Z,7.32
2023-05-21T15:28:14.670Z,6.22
2023-05-21T15:30:48.090Z,7.10
2023-05-21T15:33:16.166Z,6.88
2023-05-21T15:35:50.149Z,6.45
2023-05-21T15:38:17.553Z,7.63
2023-05-21T15:40:52.106Z,7.03
2023-05-21T15:43:19.223Z,7.15
2023-05-21T15:45:53.305Z,8.07
2023-05-21T15:48:29.132Z,7.03
2023-05-21T15:50:56.557Z,6.78
2023-05-21T15:53:31.100Z,7.35
2023-05-21T15:56:00.396Z,7.53
2023-05-21T15:58:34.156Z,8.35
2023-05-21T16:01:09.138Z,6.22
2023-05-21T16:03:43.280Z,7.85
2023-05-21T16:06:17.117Z,7.97
2023-05-21T16:08:52.158Z,7.75
2023-05-21T16:11:34.099Z,8.38
2023-05-21T16:14:08.085Z,10.70
2023-05-21T16:16:37.707Z,7.18
2023-05-21T16:19:13.489Z,7.93
2023-05-21T16:21:42.250Z,6.88
2023-05-21T16:24:16.179Z,11.98
2023-05-21T16:26:44.109Z,6.82
2023-05-21T16:29:18.123Z,6.85
2023-05-21T16:31:52.237Z,6.25
2023-05-21T16:34:26.075Z,6.38
2023-05-21T16:36:54.220Z,6.40
2023-05-21T16:39:28.100Z,6.82
2023-05-21T16:42:01.367Z,8.23
2023-05-21T16:44:36.231Z,6.68
2023-05-21T16:47:04.560Z,5.85
2023-05-21T16:49:38.137Z,7.22
2023-05-21T16:52:05.735Z,6.55
2023-05-21T16:54:40.109Z,7.15
2023-05-21T16:57:07.546Z,9.57
2023-05-21T16:59:41.189Z,6.13
2023-05-21T17:02:12.083Z,8.18
2023-05-21T17:04:46.146Z,7.40
2023-05-21T17:07:13.200Z,6.78
2023-05-21T17:09:54.181Z,6.28
2023-05-21T17:12:28.132Z,9.57
2023-05-21T17:15:02.134Z,6.70
2023-05-21T17:17:29.406Z,7.57
2023-05-21T17:20:03.169Z,9.55
2023-05-21T17:22:37.212Z,6.78
2023-05-21T17:25:11.116Z,7.53
2023-05-21T17:27:38.247Z,7.97
2023-05-21T17:30:13.115Z,7.00
2023-05-21T17:32:40.159Z,9.32
2023-05-21T17:35:15.180Z,7.30
2023-05-21T17:37:42.329Z,7.15
2023-05-21T17:40:09.976Z,7.07
2023-05-21T17:42:44.184Z,8.65
2023-05-21T17:45:18.172Z,8.23
2023-05-21T17:47:45.352Z,7.30
2023-05-21T17:50:19.145Z,7.20
2023-05-21T17:52:46.255Z,9.15
2023-05-21T17:55:21.115Z,7.68
2023-05-21T17:57:48.293Z,7.55
2023-05-21T18:00:22.458Z,10.95
2023-05-21T18:02:49.689Z,9.75
2023-05-21T18:05:23.133Z,9.40
2023-05-21T18:07:50.524Z,10.30
2023-05-21T18:10:30.267Z,9.88
2023-05-21T18:12:57.465Z,7.30
2023-05-21T18:15:31.430Z,10.18
2023-05-21T18:17:58.693Z,7.45
2023-05-21T18:20:32.165Z,7.18
2023-05-21T18:22:59.276Z,7.40
2023-05-21T18:25:33.152Z,8.88
2023-05-21T18:28:01.601Z,6.70
2023-05-21T18:30:35.466Z,8.43
2023-05-21T18:33:04.159Z,9.40
2023-05-21T18:35:45.537Z,7.53
2023-05-21T18:38:13.313Z,8.30
2023-05-21T18:40:47.127Z,7.88
2023-05-21T18:43:14.674Z,9.30
2023-05-21T18:45:49.369Z,10.13
2023-05-21T18:48:24.187Z,11.30
2023-05-21T18:50:58.140Z,8.02
2023-05-21T18:53:25.238Z,8.52
2023-05-21T18:55:59.130Z,7.53
2023-05-21T18:58:33.377Z,11.52
2023-05-21T19:01:08.210Z,9.55
2023-05-21T19:03:35.290Z,12.48
2023-05-21T19:06:09.173Z,7.90
2023-05-21T19:08:46.283Z,7.38
2023-05-21T19:11:29.189Z,11.32
2023-05-21T19:14:03.162Z,8.93
2023-05-21T19:16:37.290Z,7.68
2023-05-21T19:19:11.228Z,8.18
2023-05-21T19:21:39.596Z,8.57
2023-05-21T19:24:14.180Z,9.45
2023-05-21T19:26:49.543Z,9.15
2023-05-21T19:29:23.129Z,10.13
2023-05-21T19:31:57.182Z,8.27
2023-05-21T19:34:24.304Z,10.10
2023-05-21T19:36:58.199Z,9.18
2023-05-21T19:39:25.450Z,8.88
2023-05-21T19:41:59.261Z,8.98
2023-05-21T19:44:33.186Z,9.40
2023-05-21T19:47:08.179Z,9.02
2023-05-21T19:49:42.166Z,10.63
2023-05-21T19:52:10.676Z,10.70
2023-05-21T19:54:44.369Z,9.15
2023-05-21T19:57:13.404Z,13.20
2023-05-21T19:59:48.216Z,13.30
2023-05-21T20:02:17.153Z,9.27
2023-05-21T20:04:51.275Z,10.10
2023-05-21T20:07:18.386Z,12.52
2023-05-21T20:09:54.195Z,10.38
2023-05-21T20:12:22.322Z,11.07
2023-05-21T20:14:56.169Z,9.38
2023-05-21T20:17:31.293Z,9.65
2023-05-21T20:20:07.151Z,9.32
2023-05-21T20:22:40.221Z,11.25
2023-05-21T20:25:15.356Z,11.95
2023-05-21T20:27:49.205Z,13.98
2023-05-21T20:30:16.388Z,11.63
2023-05-21T20:32:50.201Z,11.25
2023-05-21T20:35:24.156Z,9.00
2023-05-21T20:37:59.206Z,9.38
2023-05-21T20:40:27.479Z,12.00
2023-05-21T20:43:01.189Z,10.20
2023-05-21T20:45:29.934Z,7.82
2023-05-21T20:48:05.314Z,9.07
2023-05-21T20:50:41.315Z,8.85
2023-05-21T20:53:15.234Z,8.98
2023-05-21T20:55:44.508Z,8.60
2023-05-21T20:58:18.224Z,11.77
2023-05-21T21:00:48.587Z,10.00
2023-05-21T21:03:24.560Z,7.65
2023-05-21T21:05:52.910Z,8.10
2023-05-21T21:08:27.452Z,10.48
2023-05-21T21:11:08.282Z,9.20
2023-05-21T21:13:43.246Z,10.13
2023-05-21T21:16:17.263Z,9.07
2023-05-21T21:18:53.221Z,8.68
2023-05-21T21:21:27.193Z,10.32
2023-05-21T21:24:01.204Z,9.40
2023-05-21T21:26:28.424Z,11.15
2023-05-21T21:29:03.200Z,9.85
2023-05-21T21:31:30.747Z,8.70
2023-05-21T21:34:04.354Z,11.50
2023-05-21T21:36:31.572Z,10.02
2023-05-21T21:39:07.216Z,9.80
2023-05-21T21:41:41.204Z,9.25
2023-05-21T21:44:08.314Z,9.88
2023-05-21T21:46:44.221Z,8.63
2023-05-21T21:49:11.322Z,11.10
2023-05-21T21:51:46.178Z,9.02
2023-05-21T21:54:20.256Z,12.05
2023-05-21T21:56:48.596Z,11.93
2023-05-21T21:59:22.225Z,8.75
2023-05-21T22:01:49.498Z,13.60
2023-05-21T22:04:24.281Z,11.60
2023-05-21T22:07:00.176Z,10.95
2023-05-21T22:09:41.239Z,9.65
2023-05-21T22:12:15.239Z,9.35
2023-05-21T22:14:43.858Z,11.40
2023-05-21T22:17:17.503Z,14.40
2023-05-21T22:19:51.219Z,11.30
2023-05-21T22:22:25.336Z,10.85
2023-05-21T22:24:55.307Z,9.85
2023-05-21T22:27:30.231Z,14.07
2023-05-21T22:29:57.435Z,10.88
2023-05-21T22:32:31.307Z,11.30
2023-05-21T22:34:59.608Z,12.45
2023-05-21T22:37:33.203Z,12.95
2023-05-21T22:40:07.251Z,9.77
2023-05-21T22:42:35.562Z,12.68
2023-05-21T22:45:12.663Z,14.52
2023-05-21T22:47:46.307Z,10.57
2023-05-21T22:50:20.197Z,13.52
2023-05-21T22:52:47.373Z,10.43
2023-05-21T22:55:23.263Z,12.52
2023-05-21T22:57:52.973Z,10.18
2023-05-21T23:00:28.437Z,10.50
2023-05-21T23:02:55.806Z,14.25
2023-05-21T23:05:29.242Z,10.68
2023-05-21T23:08:03.206Z,12.00
2023-05-21T23:10:43.243Z,9.48
2023-05-21T23:13:17.218Z,11.93
2023-05-21T23:15:51.530Z,13.75
2023-05-21T23:18:19.001Z,11.20
2023-05-21T23:20:55.316Z,10.48
2023-05-21T23:23:22.396Z,12.15
2023-05-21T23:25:57.255Z,11.75
2023-05-21T23:28:24.568Z,11.35
2023-05-21T23:30:54.404Z,15.82
2023-05-21T23:33:28.270Z,10.90
2023-05-21T23:35:55.535Z,9.82
2023-05-21T23:38:31.282Z,12.27
2023-05-21T23:40:58.381Z,10.95
2023-05-21T23:43:32.301Z,12.00
2023-05-21T23:46:06.349Z,10.55
2023-05-21T23:48:40.746Z,11.88
2023-05-21T23:51:15.262Z,9.60
2023-05-21T23:53:49.506Z,10.55
2023-05-21T23:56:23.213Z,11.18
2023-05-21T23:58:53.230Z,11.43
